createdAt,value
2022-08-19T00:03:36.579Z,14.18
2022-08-19T00:06:04.722Z,12.80
2022-08-19T00:08:33.613Z,13.77
2022-08-19T00:11:01.544Z,12.55
2022-08-19T00:13:29.929Z,13.43
2022-08-19T00:15:59.821Z,17.25
2022-08-19T00:18:27.384Z,13.63
2022-08-19T00:20:55.337Z,14.15
2022-08-19T00:23:26.413Z,11.95
2022-08-19T00:25:54.168Z,11.68
2022-08-19T00:28:21.949Z,12.18
2022-08-19T00:30:49.177Z,10.98
2022-08-19T00:33:17.769Z,9.93
2022-08-19T00:35:45.146Z,11.07
2022-08-19T00:38:12.436Z,9.32
2022-08-19T00:40:39.822Z,10.10
2022-08-19T00:43:12.286Z,9.73
2022-08-19T00:45:43.245Z,11.60
2022-08-19T00:48:14.771Z,14.13
2022-08-19T00:50:52.077Z,12.25
2022-08-19T00:53:23.126Z,12.68
2022-08-19T00:55:54.096Z,9.18
2022-08-19T00:58:23.197Z,11.35
2022-08-19T01:00:52.111Z,13.25
2022-08-19T01:03:22.646Z,9.48
2022-08-19T01:08:20.736Z,10.95
2022-08-19T01:10:53.210Z,8.93
2022-08-19T01:13:25.034Z,9.93
2022-08-19T01:16:06.168Z,12.15
2022-08-19T01:18:39.309Z,10.32
2022-08-19T01:21:25.381Z,12.75
2022-08-19T01:23:53.274Z,15.30
2022-08-19T01:26:23.838Z,18.13
2022-08-19T01:31:27.850Z,12.43
2022-08-19T01:33:57.900Z,11.80
2022-08-19T01:36:35.582Z,13.25
2022-08-19T01:39:08.315Z,14.55
2022-08-19T01:41:36.459Z,14.05
2022-08-19T01:44:18.062Z,17.83
2022-08-19T01:46:48.908Z,12.63
2022-08-19T01:49:17.924Z,16.10
2022-08-19T01:51:47.637Z,11.43
2022-08-19T01:54:23.215Z,11.93
2022-08-19T01:57:01.548Z,11.40
2022-08-19T01:59:29.597Z,13.80
2022-08-19T02:01:57.040Z,10.73
2022-08-19T02:04:26.568Z,11.73
2022-08-19T02:06:54.287Z,12.68
2022-08-19T02:09:21.809Z,9.68
2022-08-19T02:11:49.168Z,9.30
2022-08-19T02:14:16.756Z,17.05
2022-08-19T02:16:44.323Z,10.05
2022-08-19T02:19:12.090Z,12.15
2022-08-19T02:21:39.517Z,10.70
2022-08-19T02:24:07.427Z,8.18
2022-08-19T02:26:34.994Z,9.95
2022-08-19T02:29:04.756Z,8.00
2022-08-19T02:31:33.462Z,10.25
2022-08-19T02:34:02.781Z,9.07
2022-08-19T02:36:32.459Z,8.73
2022-08-19T02:39:01.824Z,10.45
2022-08-19T02:41:34.157Z,8.98
2022-08-19T02:44:28.693Z,10.43
2022-08-19T02:46:53.562Z,9.68
2022-08-19T02:49:21.652Z,10.20
2022-08-19T02:51:49.072Z,8.40
2022-08-19T02:54:17.210Z,9.40
2022-08-19T02:56:46.740Z,8.02
2022-08-19T02:59:14.191Z,11.45
2022-08-19T03:01:43.670Z,8.63
2022-08-19T03:04:15.336Z,8.50
2022-08-19T03:06:46.889Z,10.75
2022-08-19T03:09:15.488Z,11.02
2022-08-19T03:11:43.981Z,11.90
2022-08-19T03:14:15.949Z,11.25
2022-08-19T03:16:46.570Z,11.35
2022-08-19T03:21:41.637Z,14.88
2022-08-19T03:24:10.479Z,13.77
2022-08-19T03:26:46.511Z,11.73
2022-08-19T03:29:14.687Z,11.75
2022-08-19T03:31:54.062Z,13.63
2022-08-19T03:34:27.483Z,13.15
2022-08-19T03:36:57.395Z,14.02
2022-08-19T03:39:26.145Z,16.98
2022-08-19T03:42:31.844Z,18.00
2022-08-19T03:44:46.274Z,21.70
2022-08-19T03:47:18.092Z,24.55
2022-08-19T03:49:46.259Z,26.88
2022-08-19T03:52:13.786Z,25.80
2022-08-19T03:54:42.128Z,21.88
2022-08-19T03:57:10.243Z,25.38
2022-08-19T03:59:39.035Z,25.45
2022-08-19T04:02:13.107Z,24.17
2022-08-19T04:04:44.487Z,26.48
2022-08-19T04:07:16.850Z,26.55
2022-08-19T04:09:45.266Z,26.23
2022-08-19T04:12:12.827Z,26.70
2022-08-19T04:14:40.921Z,37.80
2022-08-19T04:17:08.672Z,32.85
2022-08-19T04:19:37.176Z,36.20
2022-08-19T04:22:05.556Z,38.60
2022-08-19T04:24:37.132Z,36.15
2022-08-19T04:27:05.229Z,33.00
2022-08-19T04:29:34.182Z,32.03
2022-08-19T04:32:09.214Z,29.20
2022-08-19T04:35:02.258Z,30.40
2022-08-19T04:37:34.701Z,29.08
2022-08-19T04:40:24.236Z,31.27
2022-08-19T04:42:55.364Z,32.35
2022-08-19T04:45:23.498Z,34.40
2022-08-19T04:47:58.975Z,32.05
2022-08-19T04:50:43.136Z,28.90
2022-08-19T04:53:11.556Z,32.15
2022-08-19T04:55:43.285Z,34.08
2022-08-19T04:58:10.582Z,30.17
2022-08-19T05:00:41.049Z,24.98
2022-08-19T05:05:45.234Z,27.63
2022-08-19T05:08:15.465Z,26.65
2022-08-19T05:10:43.887Z,28.02
2022-08-19T05:13:12.091Z,27.63
2022-08-19T05:15:39.393Z,26.23
2022-08-19T05:18:25.849Z,30.23
2022-08-19T05:21:12.308Z,29.88
2022-08-19T05:23:40.559Z,39.58
2022-08-19T05:26:07.809Z,36.78
2022-08-19T05:28:35.885Z,42.45
2022-08-19T05:31:03.552Z,43.92
2022-08-19T05:33:34.515Z,47.75
2022-08-19T05:36:04.128Z,51.58
2022-08-19T05:38:32.758Z,61.60
2022-08-19T05:41:00.171Z,63.70
2022-08-19T05:43:33.482Z,61.10
2022-08-19T05:48:33.024Z,66.60
2022-08-19T05:51:09.275Z,53.63
2022-08-19T05:53:37.539Z,59.72
2022-08-19T05:56:17.871Z,66.03
2022-08-19T05:58:46.573Z,69.15
2022-08-19T06:01:18.323Z,87.65
2022-08-19T06:03:47.065Z,97.30
2022-08-19T06:06:16.506Z,104.32
2022-08-19T06:08:46.474Z,109.28
2022-08-19T06:11:19.582Z,110.13
2022-08-19T06:13:51.636Z,116.25
2022-08-19T06:16:23.933Z,122.80
2022-08-19T06:18:56.183Z,123.18
2022-08-19T06:21:26.149Z,122.43
2022-08-19T06:23:54.185Z,131.38
2022-08-19T06:26:22.694Z,129.82
2022-08-19T06:28:50.451Z,126.95
2022-08-19T06:31:25.241Z,127.93
2022-08-19T06:33:53.249Z,135.30
2022-08-19T06:36:32.724Z,129.10
2022-08-19T06:39:02.898Z,131.93
2022-08-19T06:41:32.190Z,134.40
2022-08-19T06:43:59.742Z,118.28
2022-08-19T06:46:28.645Z,126.63
2022-08-19T06:48:56.777Z,120.13
2022-08-19T06:51:25.300Z,116.07
2022-08-19T06:53:57.100Z,112.03
2022-08-19T06:56:36.674Z,107.25
2022-08-19T06:59:11.178Z,110.07
2022-08-19T07:01:41.216Z,108.82
2022-08-19T07:04:12.083Z,110.35
2022-08-19T07:06:44.278Z,106.57
2022-08-19T07:09:18.405Z,102.95
2022-08-19T07:11:48.879Z,105.90
2022-08-19T07:14:20.127Z,104.43
2022-08-19T07:16:50.529Z,97.53
2022-08-19T07:19:20.486Z,102.72
2022-08-19T07:21:50.506Z,101.57
2022-08-19T07:24:18.821Z,90.70
2022-08-19T07:26:46.428Z,92.85
2022-08-19T07:29:20.805Z,94.45
2022-08-19T07:31:52.936Z,88.53
2022-08-19T07:34:23.115Z,94.53
2022-08-19T07:36:51.510Z,88.82
2022-08-19T07:39:26.131Z,91.15
2022-08-19T07:41:55.129Z,93.65
2022-08-19T07:44:24.040Z,86.35
2022-08-19T07:46:54.927Z,101.45
2022-08-19T07:49:22.733Z,88.28
2022-08-19T07:51:57.259Z,87.22
2022-08-19T07:54:26.975Z,91.93
2022-08-19T07:56:55.023Z,85.18
2022-08-19T07:59:23.191Z,85.57
2022-08-19T08:01:51.322Z,89.25
2022-08-19T08:04:38.925Z,76.63
2022-08-19T08:07:31.638Z,83.50
2022-08-19T08:10:03.461Z,84.25
2022-08-19T08:12:42.256Z,69.32
2022-08-19T08:15:19.881Z,77.18
2022-08-19T08:17:52.734Z,73.85
2022-08-19T08:20:24.391Z,73.38
2022-08-19T08:23:10.450Z,72.63
2022-08-19T08:25:38.964Z,68.07
2022-08-19T08:28:06.588Z,68.20
2022-08-19T08:30:37.181Z,72.72
2022-08-19T08:33:04.686Z,65.55
2022-08-19T08:35:34.602Z,62.88
2022-08-19T08:38:05.693Z,74.07
2022-08-19T08:40:45.467Z,68.60
2022-08-19T08:43:25.112Z,68.63
2022-08-19T08:46:13.533Z,60.95
2022-08-19T08:48:57.473Z,61.33
2022-08-19T08:51:36.230Z,58.40
2022-08-19T08:54:07.818Z,48.40
2022-08-19T08:56:40.810Z,45.88
2022-08-19T08:59:23.214Z,43.92
2022-08-19T09:01:50.944Z,49.80
2022-08-19T09:04:20.564Z,48.63
2022-08-19T09:07:17.998Z,37.70
2022-08-19T09:09:57.754Z,41.78
2022-08-19T09:12:44.459Z,49.85
2022-08-19T09:15:17.474Z,37.47
2022-08-19T09:17:50.144Z,39.65
2022-08-19T09:20:22.393Z,38.17
2022-08-19T09:22:50.735Z,46.95
2022-08-19T09:25:24.619Z,37.70
2022-08-19T09:28:02.984Z,38.83
2022-08-19T09:30:41.942Z,49.40
2022-08-19T09:33:09.715Z,52.60
2022-08-19T09:35:50.166Z,51.50
2022-08-19T09:38:21.732Z,45.85
2022-08-19T09:40:50.337Z,45.45
2022-08-19T09:43:33.242Z,46.40
2022-08-19T09:46:07.664Z,53.67
2022-08-19T09:48:35.918Z,44.78
2022-08-19T09:51:08.579Z,44.03
2022-08-19T09:53:40.292Z,44.90
2022-08-19T09:56:08.333Z,47.55
2022-08-19T09:58:37.304Z,52.08
2022-08-19T10:01:07.873Z,49.50
2022-08-19T10:03:38.130Z,44.83
2022-08-19T10:06:14.652Z,49.45
2022-08-19T10:08:50.121Z,46.88
2022-08-19T10:11:28.497Z,54.08
2022-08-19T10:14:07.586Z,46.60
2022-08-19T10:16:39.543Z,47.22
2022-08-19T10:19:07.150Z,39.80
2022-08-19T10:21:35.520Z,44.90
2022-08-19T10:24:06.724Z,40.92
2022-08-19T10:26:39.720Z,33.47
2022-08-19T10:29:09.389Z,32.92
2022-08-19T10:32:02.348Z,32.92
2022-08-19T10:34:28.355Z,33.92
2022-08-19T10:37:01.164Z,36.35
2022-08-19T10:39:43.316Z,34.58
2022-08-19T10:42:14.567Z,39.55
2022-08-19T10:44:42.748Z,34.80
2022-08-19T10:47:24.329Z,33.58
2022-08-19T10:50:14.000Z,37.63
2022-08-19T10:52:50.732Z,32.55
2022-08-19T10:55:40.263Z,33.80
2022-08-19T10:58:23.833Z,36.53
2022-08-19T11:00:59.479Z,27.83
2022-08-19T11:03:31.473Z,31.05
2022-08-19T11:06:05.223Z,25.10
2022-08-19T11:08:35.938Z,31.25
2022-08-19T11:11:05.002Z,31.48
2022-08-19T11:13:38.902Z,34.15
2022-08-19T11:16:10.354Z,31.00
2022-08-19T11:18:40.009Z,29.65
2022-08-19T11:21:21.367Z,30.13
2022-08-19T11:23:51.526Z,30.80
2022-08-19T11:26:20.438Z,39.42
2022-08-19T11:28:53.073Z,31.13
2022-08-19T11:31:23.935Z,32.25
2022-08-19T11:34:01.204Z,28.15
2022-08-19T11:36:29.136Z,30.70
2022-08-19T11:38:56.987Z,30.58
2022-08-19T11:41:25.256Z,27.52
2022-08-19T11:43:56.971Z,35.42
2022-08-19T11:46:26.518Z,35.97
2022-08-19T11:48:55.605Z,33.22
2022-08-19T11:51:29.105Z,26.05
2022-08-19T11:53:57.847Z,30.98
2022-08-19T11:56:26.392Z,38.50
2022-08-19T11:58:54.758Z,28.00
2022-08-19T12:01:26.921Z,30.13
2022-08-19T12:03:56.090Z,31.13
2022-08-19T12:06:33.060Z,28.60
2022-08-19T12:09:05.936Z,31.95
2022-08-19T12:11:34.501Z,31.05
2022-08-19T12:14:06.063Z,33.03
2022-08-19T12:16:34.410Z,30.20
2022-08-19T12:19:06.183Z,31.05
2022-08-19T12:21:35.968Z,33.60
2022-08-19T12:24:07.832Z,30.65
2022-08-19T12:26:52.502Z,28.67
2022-08-19T12:29:24.369Z,33.42
2022-08-19T12:31:52.301Z,28.67
2022-08-19T12:34:21.841Z,31.77
2022-08-19T12:36:50.732Z,30.83
2022-08-19T12:39:18.600Z,36.08
2022-08-19T12:41:51.512Z,28.98
2022-08-19T12:44:29.270Z,29.00
2022-08-19T12:47:01.007Z,27.95
2022-08-19T12:49:53.548Z,30.70
2022-08-19T12:52:23.942Z,31.45
2022-08-19T12:54:54.273Z,34.08
2022-08-19T12:57:32.553Z,32.47
2022-08-19T13:00:06.765Z,29.05
2022-08-19T13:02:38.250Z,41.25
2022-08-19T13:05:09.970Z,39.30
2022-08-19T13:07:39.673Z,55.72
2022-08-19T13:10:10.029Z,41.80
2022-08-19T13:12:37.786Z,40.15
2022-08-19T13:15:10.706Z,29.23
2022-08-19T13:17:40.375Z,31.92
2022-08-19T13:20:09.944Z,32.25
2022-08-19T13:22:39.350Z,35.05
2022-08-19T13:25:08.034Z,29.55
2022-08-19T13:27:35.832Z,25.10
2022-08-19T13:30:23.761Z,38.90
2022-08-19T13:33:09.416Z,22.15
2022-08-19T13:35:41.036Z,26.95
2022-08-19T13:38:09.173Z,28.90
2022-08-19T13:40:41.540Z,27.52
2022-08-19T13:43:22.273Z,25.95
2022-08-19T13:45:57.682Z,28.95
2022-08-19T13:48:29.771Z,30.40
2022-08-19T13:50:57.816Z,31.15
2022-08-19T13:53:25.753Z,26.15
2022-08-19T13:55:54.770Z,55.78
2022-08-19T13:58:23.641Z,25.30
2022-08-19T14:00:51.582Z,28.07
2022-08-19T14:03:19.414Z,29.92
2022-08-19T14:05:48.067Z,28.23
2022-08-19T14:08:15.817Z,27.85
2022-08-19T14:10:45.977Z,23.65
2022-08-19T14:15:48.873Z,36.42
2022-08-19T14:18:19.010Z,39.38
2022-08-19T14:23:14.866Z,34.35
2022-08-19T14:25:42.470Z,33.58
2022-08-19T14:28:10.537Z,31.60
2022-08-19T14:30:39.366Z,30.23
2022-08-19T14:33:08.389Z,30.88
2022-08-19T14:35:37.253Z,36.90
2022-08-19T14:38:06.427Z,27.58
2022-08-19T14:40:34.303Z,36.88
2022-08-19T14:43:05.453Z,35.67
2022-08-19T14:45:38.016Z,41.08
2022-08-19T14:48:18.917Z,41.03
2022-08-19T14:50:47.618Z,38.28
2022-08-19T14:53:17.049Z,36.97
2022-08-19T14:55:46.836Z,37.38
2022-08-19T14:58:29.026Z,41.03
2022-08-19T15:01:01.344Z,40.33
2022-08-19T15:03:29.863Z,42.17
2022-08-19T15:06:03.022Z,32.70
2022-08-19T15:08:34.995Z,38.75
2022-08-19T15:11:13.448Z,25.20
2022-08-19T15:13:40.997Z,22.33
2022-08-19T15:16:17.901Z,21.95
2022-08-19T15:18:48.014Z,26.65
2022-08-19T15:21:26.707Z,20.98
2022-08-19T15:26:28.685Z,22.60
2022-08-19T15:28:56.007Z,18.63
2022-08-19T15:31:25.506Z,20.80
2022-08-19T15:33:58.919Z,20.15
2022-08-19T15:38:59.095Z,15.63
2022-08-19T15:41:35.020Z,22.75
2022-08-19T15:44:10.005Z,24.80
2022-08-19T15:46:40.641Z,18.20
2022-08-19T15:49:10.090Z,22.02
2022-08-19T15:51:39.453Z,13.63
2022-08-19T15:54:09.537Z,6.97
2022-08-19T15:56:58.372Z,8.27
2022-08-19T15:59:47.238Z,28.95
2022-08-19T16:02:37.162Z,5.40
2022-08-19T16:05:27.241Z,2.97
2022-08-19T16:07:55.074Z,3.70
2022-08-19T16:10:26.992Z,3.63
2022-08-19T16:12:58.746Z,3.55
2022-08-19T16:15:28.066Z,3.47
2022-08-19T16:17:57.667Z,2.92
2022-08-19T16:20:28.484Z,3.80
2022-08-19T16:22:58.697Z,3.63
2022-08-19T16:25:32.324Z,2.58
2022-08-19T16:28:07.718Z,3.67
2022-08-19T16:30:41.352Z,5.65
2022-08-19T16:33:10.046Z,2.97
2022-08-19T16:35:38.090Z,5.57
2022-08-19T16:38:07.157Z,3.90
2022-08-19T16:40:36.259Z,4.40
2022-08-19T16:43:04.347Z,4.32
2022-08-19T16:45:33.352Z,5.80
2022-08-19T16:48:02.110Z,5.00
2022-08-19T16:50:48.381Z,4.88
2022-08-19T16:53:18.991Z,5.88
2022-08-19T16:55:50.964Z,6.82
2022-08-19T16:58:19.426Z,4.65
2022-08-19T17:00:48.865Z,6.20
2022-08-19T17:03:18.076Z,6.97
2022-08-19T17:05:50.259Z,6.85
2022-08-19T17:08:19.513Z,11.63
2022-08-19T17:11:16.550Z,7.85
2022-08-19T17:13:38.906Z,8.77
2022-08-19T17:16:07.083Z,8.05
2022-08-19T17:18:34.494Z,7.07
2022-08-19T17:21:02.663Z,9.02
2022-08-19T17:23:36.710Z,8.85
2022-08-19T17:26:16.863Z,9.27
2022-08-19T17:28:50.030Z,13.00
2022-08-19T17:31:20.409Z,11.10
2022-08-19T17:36:25.834Z,10.10
2022-08-19T17:38:55.490Z,9.43
2022-08-19T17:41:24.651Z,8.73
2022-08-19T17:43:57.125Z,14.15
2022-08-19T17:46:25.175Z,8.98
2022-08-19T17:48:55.273Z,9.30
2022-08-19T17:51:36.140Z,12.32
2022-08-19T17:54:05.621Z,8.45
2022-08-19T17:56:34.464Z,7.25
2022-08-19T17:59:05.870Z,8.70
2022-08-19T18:01:43.977Z,8.52
2022-08-19T18:04:23.063Z,9.73
2022-08-19T18:06:53.700Z,10.43
2022-08-19T18:09:27.064Z,10.35
2022-08-19T18:11:57.469Z,9.73
2022-08-19T18:14:33.825Z,9.00
2022-08-19T18:17:06.362Z,14.25
2022-08-19T18:19:42.287Z,11.48
2022-08-19T18:22:34.001Z,13.98
2022-08-19T18:25:06.773Z,16.35
2022-08-19T18:27:35.304Z,17.48
2022-08-19T18:30:05.909Z,20.50
2022-08-19T18:32:34.902Z,15.93
2022-08-19T18:35:10.275Z,14.82
2022-08-19T18:37:43.334Z,14.45
2022-08-19T18:40:33.230Z,15.45
2022-08-19T18:43:24.137Z,13.82
2022-08-19T18:46:10.378Z,15.45
2022-08-19T18:48:57.337Z,17.65
2022-08-19T18:51:28.450Z,19.13
2022-08-19T18:53:59.531Z,24.30
2022-08-19T18:56:29.430Z,23.70
2022-08-19T18:58:56.839Z,21.35
2022-08-19T19:01:37.777Z,26.55
2022-08-19T19:04:13.559Z,26.85
2022-08-19T19:06:42.983Z,24.30
2022-08-19T19:09:13.747Z,29.53
2022-08-19T19:11:47.105Z,29.90
2022-08-19T19:14:47.529Z,28.40
2022-08-19T19:17:14.029Z,27.67
2022-08-19T19:19:43.103Z,28.00
2022-08-19T19:22:13.861Z,34.45
2022-08-19T19:24:45.516Z,31.20
2022-08-19T19:27:15.127Z,28.45
2022-08-19T19:29:43.036Z,28.20
2022-08-19T19:32:29.775Z,31.45
2022-08-19T19:34:57.250Z,27.95
2022-08-19T19:37:24.563Z,27.08
2022-08-19T19:39:53.487Z,25.98
2022-08-19T19:42:24.001Z,26.20
2022-08-19T19:44:55.454Z,25.05
2022-08-19T19:47:24.791Z,21.90
2022-08-19T19:52:41.374Z,20.45
2022-08-19T19:55:18.343Z,20.33
2022-08-19T19:57:48.408Z,18.85
2022-08-19T20:00:19.218Z,19.23
2022-08-19T20:02:50.862Z,17.92
2022-08-19T20:05:21.770Z,17.80
2022-08-19T20:08:09.524Z,19.73
2022-08-19T20:10:37.651Z,19.17
2022-08-19T20:13:06.645Z,16.23
2022-08-19T20:15:36.969Z,18.48
2022-08-19T20:18:07.968Z,17.13
2022-08-19T20:20:35.863Z,18.90
2022-08-19T20:23:04.547Z,13.77
2022-08-19T20:25:32.980Z,11.73
2022-08-19T20:28:02.339Z,10.68
2022-08-19T20:30:33.036Z,11.90
2022-08-19T20:33:07.013Z,9.32
2022-08-19T20:35:36.167Z,12.82
2022-08-19T20:38:06.777Z,13.60
2022-08-19T20:40:36.432Z,14.00
2022-08-19T20:43:08.957Z,9.80
2022-08-19T20:45:37.327Z,13.38
2022-08-19T20:48:07.352Z,11.27
2022-08-19T20:50:36.718Z,18.30
2022-08-19T20:53:18.252Z,12.50
2022-08-19T20:55:50.229Z,9.52
2022-08-19T20:58:21.480Z,8.48
2022-08-19T21:00:50.436Z,13.85
2022-08-19T21:03:25.300Z,8.30
2022-08-19T21:05:53.275Z,10.05
2022-08-19T21:08:20.699Z,9.57
2022-08-19T21:10:50.242Z,8.82
2022-08-19T21:13:20.197Z,10.82
2022-08-19T21:15:48.372Z,10.98
2022-08-19T21:18:18.076Z,9.05
2022-08-19T21:20:46.076Z,9.00
2022-08-19T21:23:17.318Z,9.80
2022-08-19T21:25:50.396Z,9.20
2022-08-19T21:28:34.543Z,10.25
2022-08-19T21:31:06.438Z,10.30
2022-08-19T21:33:33.992Z,8.70
2022-08-19T21:36:01.972Z,9.52
2022-08-19T21:38:30.015Z,10.88
2022-08-19T21:41:04.222Z,10.90
2022-08-19T21:43:34.967Z,14.20
2022-08-19T21:46:03.658Z,11.55
2022-08-19T21:48:31.015Z,10.20
2022-08-19T21:51:03.370Z,11.68
2022-08-19T21:53:34.136Z,9.77
2022-08-19T21:56:06.829Z,13.50
2022-08-19T21:58:34.784Z,12.35
2022-08-19T22:01:08.262Z,12.40
2022-08-19T22:03:37.764Z,12.95
2022-08-19T22:06:06.402Z,10.10
2022-08-19T22:08:34.069Z,15.48
2022-08-19T22:11:03.392Z,13.63
2022-08-19T22:13:39.909Z,11.90
2022-08-19T22:16:10.320Z,10.40
2022-08-19T22:18:38.805Z,15.45
2022-08-19T22:21:11.335Z,12.85
2022-08-19T22:23:44.611Z,11.90
2022-08-19T22:26:13.445Z,14.35
2022-08-19T22:28:42.303Z,13.88
2022-08-19T22:31:11.115Z,13.02
2022-08-19T22:33:39.601Z,13.07
2022-08-19T22:36:07.804Z,14.55
2022-08-19T22:38:36.187Z,15.65
2022-08-19T22:41:03.938Z,14.82
2022-08-19T22:43:32.745Z,13.95
2022-08-19T22:46:02.351Z,14.93
2022-08-19T22:48:32.025Z,12.83
2022-08-19T22:51:19.334Z,17.20
2022-08-19T22:53:47.724Z,13.45
2022-08-19T22:56:18.292Z,13.70
2022-08-19T22:58:47.050Z,12.80
2022-08-19T23:01:30.069Z,16.52
2022-08-19T23:03:59.742Z,14.77
2022-08-19T23:06:33.054Z,13.85
2022-08-19T23:09:01.203Z,13.90
2022-08-19T23:11:29.568Z,14.68
2022-08-19T23:13:56.902Z,16.75
2022-08-19T23:16:24.898Z,14.57
2022-08-19T23:18:56.180Z,16.52
2022-08-19T23:21:26.679Z,16.70
2022-08-19T23:23:54.390Z,13.57
2022-08-19T23:26:22.167Z,15.40
2022-08-19T23:29:07.992Z,12.75
2022-08-19T23:31:36.612Z,13.95
2022-08-19T23:34:07.359Z,12.55
2022-08-19T23:36:35.047Z,20.08
2022-08-19T23:39:03.795Z,17.27
2022-08-19T23:41:32.415Z,16.02
2022-08-19T23:44:02.922Z,17.38
2022-08-19T23:46:32.795Z,19.67
2022-08-19T23:49:11.966Z,11.35
2022-08-19T23:51:39.617Z,14.95
2022-08-19T23:54:07.068Z,19.98
2022-08-19T23:56:34.333Z,15.15
2022-08-19T23:59:03.019Z,14.40
